Time;durP1;ratioP1;P1;durP2;ratioP2;P2;SDS_P1;SDS_P2;PMS_P1;PMS_P2;Temp;Humidity;BMP_temperature;BMP_pressure;BME280_temperature;BME280_humidity;BME280_pressure;Samples;Min_cycle;Max_cycle;Signal;HPM_P1;HPM_P2
2022/10/01 00:00:14;;;;;;;3.50;2.92;;;;;;;-140.72;100.00;52865.69;5000995;28;20029;-66
2022/10/01 00:02:39;;;;;;;3.35;2.10;;;;;;;-140.72;100.00;52877.88;5004906;28;20429;-66
2022/10/01 00:05:06;;;;;;;4.00;2.83;;;;;;;-140.72;100.00;52843.38;4997771;28;20030;-70
2022/10/01 00:07:43;;;;;;;3.60;2.70;;;;;;;-140.72;100.00;52875.84;5001145;28;20025;-66
2022/10/01 00:10:10;;;;;;;4.70;2.45;;;;;;;-140.72;100.00;52873.81;5004888;28;20014;-69
2022/10/01 00:12:37;;;;;;;3.63;2.30;;;;;;;-140.72;100.00;52851.50;5003254;28;20037;-68
2022/10/01 00:15:08;;;;;;;2.58;2.30;;;;;;;-140.72;100.00;52881.94;4999669;28;20109;-67
2022/10/01 00:17:35;;;;;;;4.28;2.97;;;;;;;-140.72;100.00;52825.13;5001449;28;20019;-70
2022/10/01 00:20:01;;;;;;;5.45;3.75;;;;;;;-140.72;100.00;52861.66;5000394;28;20079;-68
2022/10/01 00:22:28;;;;;;;4.65;2.67;;;;;;;-140.72;100.00;52812.94;5001744;28;20050;-68
2022/10/01 00:24:53;;;;;;;5.57;2.80;;;;;;;-140.72;100.00;52849.47;5002023;28;20431;-67
2022/10/01 00:27:19;;;;;;;2.67;2.33;;;;;;;-140.72;100.00;52894.13;5001007;28;20029;-67
2022/10/01 00:29:44;;;;;;;4.10;3.17;;;;;;;-140.72;100.00;52863.66;5008703;28;20107;-70
2022/10/01 00:32:10;;;;;;;4.57;2.97;;;;;;;-140.72;100.00;52881.94;5009825;28;20116;-69
2022/10/01 00:34:35;;;;;;;3.80;2.78;;;;;;;-140.72;100.00;52861.66;5007564;28;20018;-68
2022/10/01 00:37:00;;;;;;;3.22;2.22;;;;;;;-140.72;100.00;52851.50;5010090;28;20022;-68
2022/10/01 00:39:26;;;;;;;2.92;2.22;;;;;;;-140.72;100.00;52837.28;4996405;28;20038;-68
2022/10/01 00:41:51;;;;;;;3.50;1.92;;;;;;;-140.72;100.00;52863.66;5009103;28;20359;-68
2022/10/01 00:44:34;;;;;;;3.97;2.50;;;;;;;-140.72;100.00;52867.72;4998678;28;20042;-69
2022/10/01 00:47:26;;;;;;;3.47;3.00;;;;;;;-140.72;100.00;52873.81;4997052;28;20021;-67
2022/10/01 00:49:59;;;;;;;4.53;2.47;;;;;;;-140.72;100.00;52877.88;4988868;28;20030;-68
2022/10/01 00:52:29;;;;;;;4.30;2.60;;;;;;;-140.72;100.00;52879.91;5008788;28;20344;-68
2022/10/01 00:55:06;;;;;;;7.07;3.05;;;;;;;-140.72;100.00;52853.53;4997949;28;20409;-69
2022/10/01 00:57:32;;;;;;;2.70;2.17;;;;;;;-140.72;100.00;52865.69;5013220;28;20025;-67
2022/10/01 01:00:01;;;;;;;2.75;2.17;;;;;;;-140.72;100.00;52877.88;5006280;28;20045;-67
2022/10/01 01:02:26;;;;;;;6.20;2.60;;;;;;;-140.72;100.00;52865.69;5005855;28;20034;-67
2022/10/01 01:04:52;;;;;;;3.75;3.00;;;;;;;-140.72;100.00;52877.88;4994078;28;20076;-70
2022/10/01 01:07:18;;;;;;;4.95;3.00;;;;;;;-140.72;100.00;52865.69;5007968;28;20022;-67
2022/10/01 01:09:48;;;;;;;3.08;2.22;;;;;;;-140.72;100.00;52859.63;5001809;28;20033;-67
2022/10/01 01:12:32;;;;;;;3.70;2.22;;;;;;;-140.72;100.00;52855.56;5012079;28;20068;-65
2022/10/01 01:15:07;;;;;;;5.40;2.30;;;;;;;-140.72;100.00;52873.81;5007551;28;20069;-67
2022/10/01 01:17:50;;;;;;;5.95;2.45;;;;;;;-140.72;100.00;52829.19;4993249;28;20036;-68
2022/10/01 01:20:48;;;;;;;4.20;2.30;;;;;;;-140.72;100.00;52835.25;5002922;28;20438;-68
2022/10/01 01:23:13;;;;;;;3.95;2.72;;;;;;;-140.72;100.00;52902.22;5009273;28;20022;-69
2022/10/01 01:25:46;;;;;;;2.80;2.10;;;;;;;-140.72;100.00;52871.78;5001671;28;20458;-68
2022/10/01 01:28:22;;;;;;;3.00;1.80;;;;;;;-140.72;100.00;52869.75;5000126;28;20032;-68
2022/10/01 01:30:51;;;;;;;3.15;1.73;;;;;;;-140.72;100.00;52829.19;4999551;28;20104;-69
2022/10/01 01:33:21;;;;;;;2.72;2.22;;;;;;;-140.72;100.00;52847.44;5013041;28;20129;-68
2022/10/01 01:35:54;;;;;;;2.42;1.75;;;;;;;-140.72;100.00;52865.69;5011912;28;20065;-69
2022/10/01 01:38:27;;;;;;;2.47;2.03;;;;;;;-140.72;100.00;52829.19;5011761;28;20034;-68
2022/10/01 01:40:55;;;;;;;3.65;2.05;;;;;;;-140.72;100.00;52881.94;5012063;28;20018;-68
2022/10/01 01:43:31;;;;;;;2.10;1.30;;;;;;;-140.72;100.00;52827.16;5010873;28;20026;-68
2022/10/01 01:46:00;;;;;;;2.13;1.50;;;;;;;-140.72;100.00;52869.75;5011548;28;20021;-69
2022/10/01 01:48:28;;;;;;;1.85;1.10;;;;;;;-140.72;100.00;52857.59;4993805;28;20496;-69
2022/10/01 01:51:01;;;;;;;2.50;1.40;;;;;;;-140.72;100.00;52881.94;5000086;28;20456;-69
2022/10/01 01:53:30;;;;;;;1.60;1.40;;;;;;;-140.72;100.00;52873.81;5011724;28;20025;-70
2022/10/01 01:55:59;;;;;;;1.67;1.10;;;;;;;-140.72;100.00;52865.69;4997874;28;20026;-68
2022/10/01 01:58:26;;;;;;;2.08;1.27;;;;;;;-140.72;100.00;52857.59;4992954;28;20030;-69
2022/10/01 02:00:52;;;;;;;3.13;1.60;;;;;;;-140.72;100.00;52875.84;5006807;28;20431;-69
2022/10/01 02:03:23;;;;;;;2.15;1.48;;;;;;;-140.72;100.00;52857.59;4993225;28;20030;-68
2022/10/01 02:06:13;;;;;;;2.78;1.88;;;;;;;-140.72;100.00;52849.47;4992610;28;20065;-69
2022/10/01 02:09:13;;;;;;;2.15;1.60;;;;;;;-140.72;100.00;52859.63;5002591;28;20030;-69
2022/10/01 02:11:49;;;;;;;2.20;1.48;;;;;;;-140.72;100.00;52886.00;5005493;28;20026;-69
2022/10/01 02:14:17;;;;;;;2.33;1.65;;;;;;;-140.72;100.00;52902.22;4994754;28;20065;-70
2022/10/01 02:17:12;;;;;;;4.68;2.15;;;;;;;-140.72;100.00;52845.41;5012479;28;20109;-69
2022/10/01 02:19:55;;;;;;;2.67;1.80;;;;;;;-140.72;100.00;52873.81;4992813;28;20116;-68
2022/10/01 02:22:34;;;;;;;1.92;1.38;;;;;;;-140.72;100.00;52841.34;5000854;28;20026;-68
2022/10/01 02:25:04;;;;;;;2.03;1.50;;;;;;;-140.72;100.00;52869.75;4999395;28;20457;-69
2022/10/01 02:27:37;;;;;;;9.23;1.88;;;;;;;-140.72;100.00;52873.81;5012991;28;20034;-69
2022/10/01 02:30:06;;;;;;;3.42;1.90;;;;;;;-140.72;100.00;52857.59;5013147;28;20022;-70
2022/10/01 02:32:34;;;;;;;2.78;1.98;;;;;;;-140.72;100.00;52881.94;5012373;28;20036;-70
2022/10/01 02:35:01;;;;;;;2.05;1.52;;;;;;;-140.72;100.00;52865.69;5004036;28;20042;-68
2022/10/01 02:37:27;;;;;;;2.35;1.90;;;;;;;-140.72;100.00;52865.69;5010383;28;20029;-70
2022/10/01 02:39:56;;;;;;;2.65;2.40;;;;;;;-140.72;100.00;52845.41;5000410;28;20029;-67
2022/10/01 02:42:26;;;;;;;2.05;1.52;;;;;;;-140.72;100.00;52837.28;5011789;28;20382;-68
2022/10/01 02:45:01;;;;;;;2.95;2.20;;;;;;;-140.72;100.00;52855.56;5006193;28;20070;-67
2022/10/01 02:47:42;;;;;;;2.55;1.95;;;;;;;-140.72;100.00;52861.66;5011341;28;20047;-70
2022/10/01 02:50:08;;;;;;;3.72;2.00;;;;;;;-140.72;100.00;52833.22;5007723;28;20029;-69
2022/10/01 02:52:36;;;;;;;2.83;1.98;;;;;;;-140.72;100.00;52837.28;4998009;28;20034;-71
2022/10/01 02:55:15;;;;;;;2.50;2.00;;;;;;;-140.72;100.00;52877.88;4997277;28;20475;-71
2022/10/01 02:57:41;;;;;;;3.10;2.70;;;;;;;-140.72;100.00;52843.38;4992147;28;20028;-68
2022/10/01 03:00:13;;;;;;;3.53;2.72;;;;;;;-140.72;100.00;52855.56;4994509;28;20306;-68
2022/10/01 03:02:38;;;;;;;3.90;3.05;;;;;;;-140.72;100.00;52845.41;5009836;28;20528;-68
2022/10/01 03:05:05;;;;;;;5.30;3.00;;;;;;;-140.72;100.00;52804.81;4998744;28;20025;-70
2022/10/01 03:07:35;;;;;;;3.70;2.67;;;;;;;-140.72;100.00;52837.28;5002672;28;20037;-68
2022/10/01 03:10:02;;;;;;;3.30;2.58;;;;;;;-140.72;100.00;52877.88;5010577;28;20527;-68
2022/10/01 03:12:28;;;;;;;3.92;3.05;;;;;;;-140.72;100.00;52835.25;5009784;28;20458;-68
2022/10/01 03:14:53;;;;;;;2.92;2.63;;;;;;;-140.72;100.00;52835.25;5009920;28;20049;-68
2022/10/01 03:17:19;;;;;;;4.13;2.90;;;;;;;-140.72;100.00;52825.13;4997207;28;20062;-68
2022/10/01 03:19:44;;;;;;;3.13;2.35;;;;;;;-140.72;100.00;52867.72;5009013;28;20018;-68
2022/10/01 03:22:17;;;;;;;4.82;2.78;;;;;;;-140.72;100.00;52851.50;4992412;28;20036;-69
2022/10/01 03:24:42;;;;;;;2.97;2.20;;;;;;;-140.72;100.00;52865.69;4990151;28;20075;-67
2022/10/01 03:27:07;;;;;;;2.83;2.35;;;;;;;-140.72;100.00;52821.06;5003636;28;20085;-68
2022/10/01 03:29:33;;;;;;;3.17;2.78;;;;;;;-140.72;100.00;52837.28;5000276;28;20466;-68
2022/10/01 03:31:58;;;;;;;4.25;2.30;;;;;;;-140.72;100.00;52835.25;5009001;28;20458;-69
2022/10/01 03:34:24;;;;;;;5.47;2.33;;;;;;;-140.72;100.00;52821.06;5009086;28;20030;-68
2022/10/01 03:36:51;;;;;;;3.50;2.50;;;;;;;-140.72;100.00;52829.19;5009349;28;20025;-68
2022/10/01 03:39:16;;;;;;;3.50;2.47;;;;;;;-140.72;100.00;52845.41;5009920;28;20088;-69
2022/10/01 03:41:42;;;;;;;3.22;2.17;;;;;;;-140.72;100.00;52829.19;4995808;28;20458;-68
2022/10/01 03:44:08;;;;;;;4.75;2.63;;;;;;;-140.72;100.00;52814.97;5008631;28;20025;-69
2022/10/01 03:46:33;;;;;;;3.10;2.45;;;;;;;-140.72;100.00;52831.19;4995602;28;20441;-68
2022/10/01 03:48:59;;;;;;;3.38;2.05;;;;;;;-140.72;100.00;52849.47;5009299;28;20469;-68
2022/10/01 03:51:27;;;;;;;3.35;2.53;;;;;;;-140.72;100.00;52873.81;5008506;28;20029;-68
2022/10/01 03:53:52;;;;;;;2.40;1.95;;;;;;;-140.72;100.00;52833.22;4999542;28;20393;-68
2022/10/01 03:56:18;;;;;;;2.60;1.63;;;;;;;-140.72;100.00;52833.22;5006252;28;20014;-69
2022/10/01 03:58:43;;;;;;;2.55;2.08;;;;;;;-140.72;100.00;52863.66;5009212;28;20109;-68
2022/10/01 04:01:09;;;;;;;3.47;2.15;;;;;;;-140.72;100.00;52853.53;5008889;28;20053;-69
2022/10/01 04:03:34;;;;;;;1.75;1.50;;;;;;;-140.72;100.00;52796.72;5009653;28;20041;-68
2022/10/01 04:05:59;;;;;;;1.92;1.70;;;;;;;-140.72;100.00;52812.94;5004576;28;20032;-68
2022/10/01 04:08:25;;;;;;;3.10;1.95;;;;;;;-140.72;100.00;52841.34;4989612;28;20050;-68
2022/10/01 04:10:50;;;;;;;3.85;2.20;;;;;;;-140.72;100.00;52788.59;5005405;28;20451;-69
2022/10/01 04:13:16;;;;;;;2.22;1.73;;;;;;;-140.72;100.00;52825.13;4998879;28;20037;-68
2022/10/01 04:15:42;;;;;;;4.05;1.50;;;;;;;-140.72;100.00;52821.06;5003138;28;20381;-69
2022/10/01 04:18:08;;;;;;;2.20;1.58;;;;;;;-140.72;100.00;52819.03;5000158;28;20446;-69
2022/10/01 04:20:36;;;;;;;2.80;1.40;;;;;;;-140.72;100.00;52829.19;5005054;28;20359;-69
2022/10/01 04:23:05;;;;;;;2.15;1.50;;;;;;;-140.72;100.00;52808.88;5000390;28;20018;-68
2022/10/01 04:25:30;;;;;;;1.88;1.50;;;;;;;-140.72;100.00;52808.88;5001963;28;20036;-68
2022/10/01 04:28:04;;;;;;;2.53;1.73;;;;;;;-140.72;100.00;52804.81;4989898;28;20022;-68
2022/10/01 04:30:32;;;;;;;3.67;1.67;;;;;;;-140.72;100.00;52810.91;5001184;28;20022;-68
2022/10/01 04:32:58;;;;;;;1.70;1.60;;;;;;;-140.72;100.00;52823.09;5013842;28;20025;-68
2022/10/01 04:35:24;;;;;;;1.55;1.35;;;;;;;-140.72;100.00;52784.53;5015033;28;20454;-69
2022/10/01 04:38:02;;;;;;;2.40;1.58;;;;;;;-140.72;100.00;52835.25;5001741;28;20030;-69
2022/10/01 04:40:35;;;;;;;2.25;1.48;;;;;;;-140.72;100.00;52837.28;5005729;28;20053;-69
2022/10/01 04:43:01;;;;;;;2.83;1.75;;;;;;;-140.72;100.00;52837.28;5012378;28;20466;-69
2022/10/01 04:45:27;;;;;;;2.55;1.13;;;;;;;-140.72;100.00;52847.44;5008563;28;20049;-70
2022/10/01 04:47:54;;;;;;;2.50;1.50;;;;;;;-140.72;100.00;52802.78;4998881;28;20350;-68
2022/10/01 04:50:21;;;;;;;2.33;1.52;;;;;;;-140.72;100.00;52829.19;5007641;28;20057;-69
2022/10/01 04:52:47;;;;;;;2.60;1.80;;;;;;;-140.72;100.00;52802.78;5009587;28;20084;-69
2022/10/01 04:55:13;;;;;;;2.65;1.63;;;;;;;-140.72;100.00;52802.78;5001417;28;20026;-69
2022/10/01 04:57:39;;;;;;;2.25;1.75;;;;;;;-140.72;100.00;52837.28;4999635;28;20033;-68
2022/10/01 05:00:06;;;;;;;4.25;1.70;;;;;;;-140.72;100.00;52849.47;5007003;28;20030;-68
2022/10/01 05:02:33;;;;;;;3.17;1.48;;;;;;;-140.72;100.00;52821.06;5011289;28;20208;-70
2022/10/01 05:05:02;;;;;;;1.80;1.48;;;;;;;-140.72;100.00;52817.00;5014794;28;20049;-69
2022/10/01 05:07:28;;;;;;;2.13;1.92;;;;;;;-140.72;100.00;52847.44;5013593;28;20037;-69
2022/10/01 05:09:53;;;;;;;3.47;1.48;;;;;;;-140.72;100.00;52812.94;5021979;28;20106;-69
2022/10/01 05:12:18;;;;;;;1.58;1.33;;;;;;;-140.72;100.00;52817.00;5017415;28;20102;-68
2022/10/01 05:14:44;;;;;;;4.07;1.77;;;;;;;-140.72;100.00;52861.66;5016764;28;20029;-68
2022/10/01 05:17:09;;;;;;;2.75;1.45;;;;;;;-140.72;100.00;52845.41;5014936;28;20029;-68
2022/10/01 05:19:35;;;;;;;2.42;1.70;;;;;;;-140.72;100.00;52841.34;5008484;28;20106;-69
2022/10/01 05:22:00;;;;;;;2.30;1.38;;;;;;;-140.72;100.00;52837.28;5006662;28;20037;-69
2022/10/01 05:24:25;;;;;;;1.67;1.33;;;;;;;-140.72;100.00;52802.78;5008800;28;20117;-68
2022/10/01 05:26:53;;;;;;;3.70;1.42;;;;;;;-140.72;100.00;52835.25;5010126;28;20026;-69
2022/10/01 05:29:19;;;;;;;4.10;1.40;;;;;;;-140.72;100.00;52849.47;5013794;28;20049;-69
2022/10/01 05:31:45;;;;;;;3.30;1.70;;;;;;;-140.72;100.00;52812.94;5006944;28;20048;-68
2022/10/01 05:34:11;;;;;;;2.20;1.50;;;;;;;-140.72;100.00;52825.13;5010876;28;20438;-69
2022/10/01 05:36:36;;;;;;;3.05;1.35;;;;;;;-140.72;100.00;52804.81;5012957;28;20303;-69
2022/10/01 05:39:01;;;;;;;3.83;1.48;;;;;;;-140.72;100.00;52883.97;5003223;28;20025;-68
2022/10/01 05:41:27;;;;;;;2.72;1.67;;;;;;;-140.72;100.00;52837.28;5000165;28;20058;-68
2022/10/01 05:43:52;;;;;;;3.08;1.92;;;;;;;-140.72;100.00;52819.03;4997101;28;20026;-68
2022/10/01 05:46:18;;;;;;;1.30;1.17;;;;;;;-140.72;100.00;52843.38;5001177;28;20433;-68
2022/10/01 05:48:44;;;;;;;2.10;1.80;;;;;;;-140.72;100.00;52845.41;5002193;28;20045;-68
2022/10/01 05:51:09;;;;;;;1.70;1.35;;;;;;;-140.72;100.00;52835.25;4996384;28;20050;-68
2022/10/01 05:53:38;;;;;;;2.75;1.92;;;;;;;-140.72;100.00;52855.56;5007854;28;20069;-68
2022/10/01 05:56:08;;;;;;;2.40;1.73;;;;;;;-140.72;100.00;52823.09;5003892;28;20026;-68
2022/10/01 05:58:33;;;;;;;4.63;2.13;;;;;;;-140.72;100.00;52833.22;5001762;28;20022;-68
2022/10/01 06:00:59;;;;;;;1.73;1.42;;;;;;;-140.72;100.00;52847.44;5008893;28;20068;-68
2022/10/01 06:03:27;;;;;;;3.20;1.70;;;;;;;-140.72;100.00;52796.72;5000462;28;20022;-68
2022/10/01 06:05:53;;;;;;;2.58;1.55;;;;;;;-140.72;100.00;52817.00;4997843;28;21115;-68
2022/10/01 06:08:19;;;;;;;2.50;1.92;;;;;;;-140.72;100.00;52817.00;5001187;28;20034;-68
2022/10/01 06:10:45;;;;;;;2.58;1.60;;;;;;;-140.72;100.00;52841.34;5004215;28;20028;-68
2022/10/01 06:13:16;;;;;;;4.28;2.08;;;;;;;-140.72;100.00;52853.53;5005679;28;20403;-68
2022/10/01 06:15:43;;;;;;;3.17;1.45;;;;;;;-140.72;100.00;52819.03;5008214;28;20025;-68
2022/10/01 06:18:11;;;;;;;3.60;1.67;;;;;;;-140.72;100.00;52837.28;5000235;28;20046;-69
2022/10/01 06:20:38;;;;;;;3.40;2.15;;;;;;;-140.72;100.00;52814.97;5006055;28;20349;-68
2022/10/01 06:23:06;;;;;;;4.45;2.08;;;;;;;-140.72;100.00;52827.16;4991864;28;20172;-67
2022/10/01 06:25:33;;;;;;;3.20;1.85;;;;;;;-140.72;100.00;52841.34;4996535;28;20037;-68
2022/10/01 06:28:00;;;;;;;2.65;1.60;;;;;;;-140.72;100.00;52825.13;5009943;28;20139;-67
2022/10/01 06:30:30;;;;;;;4.35;2.28;;;;;;;-140.72;100.00;52849.47;5009278;28;20034;-68
2022/10/01 06:33:03;;;;;;;5.55;1.88;;;;;;;-140.72;100.00;52798.72;5009843;28;20456;-67
2022/10/01 06:35:30;;;;;;;3.42;1.73;;;;;;;-140.72;100.00;52817.00;4998548;28;20116;-67
2022/10/01 06:37:56;;;;;;;1.65;1.30;;;;;;;-140.72;100.00;52772.34;5010464;28;20029;-68
2022/10/01 06:40:22;;;;;;;2.67;1.90;;;;;;;-140.72;100.00;52798.72;5009536;28;20455;-68
2022/10/01 06:42:49;;;;;;;2.60;1.55;;;;;;;-140.72;100.00;52800.75;5009528;28;20594;-69
2022/10/01 06:45:16;;;;;;;6.10;2.35;;;;;;;-140.72;100.00;52806.84;5010091;28;20022;-68
2022/10/01 06:47:42;;;;;;;2.70;1.88;;;;;;;-140.72;100.00;52837.28;5010213;28;20471;-69
2022/10/01 06:50:08;;;;;;;5.60;1.95;;;;;;;-140.72;100.00;52821.06;5007581;28;20068;-69
2022/10/01 06:52:50;;;;;;;2.55;1.55;;;;;;;-140.72;100.00;52796.72;5001568;28;20033;-68
2022/10/01 06:55:17;;;;;;;4.93;1.67;;;;;;;-140.72;100.00;52784.53;4992266;28;20028;-68
2022/10/01 06:57:43;;;;;;;3.65;1.75;;;;;;;-140.72;100.00;52780.47;5010497;28;20028;-69
2022/10/01 07:00:10;;;;;;;4.05;1.55;;;;;;;-140.72;100.00;52798.72;4992808;28;20045;-68
2022/10/01 07:02:35;;;;;;;3.53;1.75;;;;;;;-140.72;100.00;52800.75;5006030;28;20088;-68
2022/10/01 07:05:00;;;;;;;3.22;1.92;;;;;;;-140.72;100.00;52802.78;5001622;28;20410;-68
2022/10/01 07:07:36;;;;;;;4.68;1.60;;;;;;;-140.72;100.00;52802.78;4999571;28;20025;-68
2022/10/01 07:10:05;;;;;;;8.23;2.28;;;;;;;-140.72;100.00;52814.97;5005124;28;20030;-69
2022/10/01 07:12:32;;;;;;;4.35;1.55;;;;;;;-140.72;100.00;52817.00;4995977;28;20026;-69
2022/10/01 07:14:58;;;;;;;2.35;1.55;;;;;;;-140.72;100.00;52853.53;5004181;28;20019;-70
2022/10/01 07:17:26;;;;;;;3.00;1.75;;;;;;;-140.72;100.00;52796.72;5004246;28;20029;-70
2022/10/01 07:19:51;;;;;;;4.63;1.90;;;;;;;-140.72;100.00;52778.44;4996172;28;20029;-68
2022/10/01 07:22:25;;;;;;;3.17;1.38;;;;;;;-140.72;100.00;52804.81;5004040;28;20034;-69
2022/10/01 07:24:50;;;;;;;5.47;2.00;;;;;;;-140.72;100.00;52808.88;5003862;28;20033;-68
2022/10/01 07:27:17;;;;;;;3.60;1.63;;;;;;;-140.72;100.00;52845.41;5010096;28;20480;-69
2022/10/01 07:29:43;;;;;;;5.75;1.85;;;;;;;-140.72;100.00;52806.84;5004297;28;20030;-68
2022/10/01 07:32:09;;;;;;;4.30;1.83;;;;;;;-140.72;100.00;52821.06;5005918;28;20181;-69
2022/10/01 07:34:41;;;;;;;5.20;2.05;;;;;;;-140.72;100.00;52782.50;4996714;28;20027;-69
2022/10/01 07:37:08;;;;;;;3.50;1.27;;;;;;;-140.72;100.00;52756.13;5004768;28;20097;-69
2022/10/01 07:39:34;;;;;;;3.88;1.45;;;;;;;-140.72;100.00;52752.06;5009765;28;20100;-69
2022/10/01 07:41:59;;;;;;;7.47;1.40;;;;;;;-140.72;100.00;52778.44;4995919;28;20544;-69
2022/10/01 07:44:26;;;;;;;5.82;1.55;;;;;;;-140.72;100.00;52768.28;5001724;28;20046;-69
2022/10/01 07:46:52;;;;;;;6.80;1.20;;;;;;;-140.72;100.00;52739.88;4996265;28;20018;-69
2022/10/01 07:49:18;;;;;;;3.45;0.77;;;;;;;-140.72;100.00;52713.50;4996828;28;20025;-68
2022/10/01 07:51:43;;;;;;;5.10;1.38;;;;;;;-140.72;100.00;52727.72;5008892;28;20032;-68
2022/10/01 07:54:09;;;;;;;4.72;1.17;;;;;;;-140.72;100.00;52778.44;5009451;28;20057;-68
2022/10/01 07:56:34;;;;;;;4.47;0.70;;;;;;;-140.72;100.00;52796.72;4991094;28;20032;-68
2022/10/01 07:59:00;;;;;;;3.67;1.23;;;;;;;-140.72;100.00;52750.03;5009254;28;20462;-69
2022/10/01 08:01:26;;;;;;;6.80;0.88;;;;;;;-140.72;100.00;52806.84;5002931;28;20030;-68
2022/10/01 08:03:52;;;;;;;5.63;1.10;;;;;;;-140.72;100.00;52802.78;4988830;28;20026;-68
2022/10/01 08:06:19;;;;;;;5.25;1.02;;;;;;;-140.72;100.00;52796.72;5009271;28;20366;-68
2022/10/01 08:08:45;;;;;;;3.90;0.98;;;;;;;-140.72;100.00;52780.47;5008837;28;20510;-68
2022/10/01 08:11:13;;;;;;;2.97;1.00;;;;;;;-140.72;100.00;52810.91;5008353;28;20104;-69
2022/10/01 08:13:39;;;;;;;5.05;0.98;;;;;;;-140.72;100.00;52802.78;5008652;28;20033;-69
2022/10/01 08:16:08;;;;;;;2.95;0.80;;;;;;;-140.72;100.00;52810.91;5001181;28;20118;-69
2022/10/01 08:18:34;;;;;;;1.77;0.77;;;;;;;-140.72;100.00;52750.03;5003833;28;20026;-69
2022/10/01 08:21:01;;;;;;;3.55;1.25;;;;;;;-140.72;100.00;52752.06;5000473;28;20367;-70
2022/10/01 08:23:28;;;;;;;2.83;0.77;;;;;;;-140.72;100.00;52741.91;4999591;28;20488;-67
2022/10/01 08:26:01;;;;;;;5.60;0.77;;;;;;;-140.72;100.00;52719.59;5004518;28;20366;-67
2022/10/01 08:28:27;;;;;;;5.93;0.95;;;;;;;-140.72;100.00;52768.28;5002402;28;20026;-67
2022/10/01 08:30:52;;;;;;;2.28;0.70;;;;;;;-140.72;100.00;52768.28;5005025;28;20362;-68
2022/10/01 08:33:18;;;;;;;3.80;0.75;;;;;;;-140.72;100.00;52743.94;5004599;28;20385;-68
2022/10/01 08:35:43;;;;;;;3.47;0.90;;;;;;;-140.72;100.00;52741.91;4991860;28;20038;-68
2022/10/01 08:38:10;;;;;;;1.67;0.70;;;;;;;-140.72;100.00;52697.28;5003143;28;20026;-68
2022/10/01 08:40:45;;;;;;;3.42;1.08;;;;;;;-140.72;100.00;52729.75;5005578;28;20475;-68
2022/10/01 08:43:29;;;;;;;4.18;0.50;;;;;;;-140.72;100.00;52729.75;4991403;28;20034;-68
2022/10/01 08:45:59;;;;;;;3.40;0.68;;;;;;;-140.72;100.00;52739.88;5007170;28;20123;-68
2022/10/01 08:48:28;;;;;;;3.28;1.45;;;;;;;-140.72;100.00;52731.75;5008531;28;20018;-68
2022/10/01 08:51:03;;;;;;;4.70;0.57;;;;;;;-140.72;100.00;52715.53;4997756;28;20113;-69
2022/10/01 08:53:35;;;;;;;2.58;0.50;;;;;;;-140.72;100.00;52764.25;5007347;28;20165;-68
2022/10/01 08:56:02;;;;;;;2.70;0.68;;;;;;;-140.72;100.00;52748.00;4996648;28;20049;-68
2022/10/01 08:58:34;;;;;;;3.65;0.60;;;;;;;-140.72;100.00;52731.75;4995157;28;20018;-68
2022/10/01 09:00:59;;;;;;;1.63;0.90;;;;;;;-140.72;100.00;52735.81;5007579;28;20113;-67
2022/10/01 09:03:29;;;;;;;1.15;0.52;;;;;;;-140.72;100.00;52719.59;5008352;28;20108;-68
2022/10/01 09:06:10;;;;;;;3.17;0.98;;;;;;;-140.72;100.00;52691.19;4996710;28;20109;-68
2022/10/01 09:08:55;;;;;;;9.20;0.95;;;;;;;-140.72;100.00;52709.44;4998117;28;20125;-69
2022/10/01 09:11:48;;;;;;;5.60;0.95;;;;;;;-140.72;100.00;52695.25;4990678;28;20091;-69
2022/10/01 09:14:31;;;;;;;5.28;1.10;;;;;;;-140.72;100.00;52654.66;5002990;28;20022;-69
2022/10/01 09:17:22;;;;;;;5.22;1.15;;;;;;;-140.72;100.00;52644.50;5011862;28;20029;-69
2022/10/01 09:20:03;;;;;;;4.88;1.08;;;;;;;-140.72;100.00;52652.63;5010680;28;20458;-69
2022/10/01 09:22:51;;;;;;;1.92;0.80;;;;;;;-140.72;100.00;52634.38;5012289;28;20416;-68
2022/10/01 09:25:26;;;;;;;4.18;0.95;;;;;;;-140.72;100.00;52670.88;4994572;28;20105;-68
2022/10/01 09:28:15;;;;;;;3.85;0.73;;;;;;;-140.72;100.00;52652.63;4995776;28;20066;-68
2022/10/01 09:30:45;;;;;;;1.75;0.38;;;;;;;-140.72;100.00;52703.34;5005078;28;20137;-68
2022/10/01 09:33:21;;;;;;;2.53;0.77;;;;;;;-140.72;100.00;52648.56;5006673;28;20526;-68
2022/10/01 09:35:53;;;;;;;5.93;1.08;;;;;;;-140.72;100.00;52725.69;5004129;28;20105;-69
2022/10/01 09:38:23;;;;;;;4.65;1.00;;;;;;;-140.72;100.00;52764.25;5012580;28;20026;-68
2022/10/01 09:40:53;;;;;;;2.70;0.70;;;;;;;-140.72;100.00;52717.56;5012839;28;20125;-68
2022/10/01 09:43:22;;;;;;;5.35;0.98;;;;;;;-140.72;100.00;52683.06;5008096;28;20022;-67
2022/10/01 09:45:51;;;;;;;3.17;1.02;;;;;;;-140.72;100.00;52707.41;5008696;28;20017;-68
2022/10/01 09:48:45;;;;;;;6.70;1.13;;;;;;;-140.72;100.00;52703.34;5012232;28;20149;-68
2022/10/01 09:51:30;;;;;;;3.45;1.30;;;;;;;-140.72;100.00;52739.88;5012442;28;20034;-68
2022/10/01 09:53:57;;;;;;;3.05;0.63;;;;;;;-140.72;100.00;52697.28;4999515;28;20473;-68
2022/10/01 09:56:41;;;;;;;5.72;1.08;;;;;;;-140.72;100.00;52695.25;5012086;28;20040;-67
2022/10/01 09:59:14;;;;;;;6.13;1.35;;;;;;;-140.72;100.00;52760.19;4976434;28;20424;-69
2022/10/01 10:01:54;;;;;;;4.18;0.57;;;;;;;-140.72;100.00;52711.47;4993845;28;20335;-68
2022/10/01 10:04:25;;;;;;;1.92;0.68;;;;;;;-140.72;100.00;52709.44;4993157;28;20044;-68
2022/10/01 10:06:58;;;;;;;9.90;1.20;;;;;;;-140.72;100.00;52689.16;5005500;28;20485;-68
2022/10/01 10:09:29;;;;;;;4.05;1.17;;;;;;;-140.72;100.00;52705.38;5006188;28;20030;-68
2022/10/01 10:11:57;;;;;;;4.85;1.25;;;;;;;-140.72;100.00;52731.75;5001505;28;20018;-68
2022/10/01 10:14:36;;;;;;;5.03;0.93;;;;;;;-140.72;100.00;52650.59;5010018;28;21207;-68
2022/10/01 10:17:20;;;;;;;3.92;0.60;;;;;;;-140.72;100.00;52693.22;4993372;28;20030;-68
2022/10/01 10:19:51;;;;;;;5.28;0.95;;;;;;;-140.72;100.00;52715.53;4996656;28;20033;-68
2022/10/01 10:22:24;;;;;;;2.08;0.32;;;;;;;-140.72;100.00;52695.25;5011845;28;20018;-67
2022/10/01 10:24:56;;;;;;;3.75;0.98;;;;;;;-140.72;100.00;52713.50;4998545;28;20026;-68
2022/10/01 10:27:26;;;;;;;4.38;0.70;;;;;;;-140.72;100.00;52654.66;5009086;28;20014;-68
2022/10/01 10:30:27;;;;;;;2.47;0.82;;;;;;;-140.72;100.00;52644.50;5010112;28;20489;-68
2022/10/01 10:33:05;;;;;;;5.55;0.85;;;;;;;-140.72;100.00;52662.78;4950818;28;20029;-68
2022/10/01 10:35:30;;;;;;;4.30;1.13;;;;;;;-140.72;100.00;52672.91;5003943;28;20548;-67
2022/10/01 10:37:56;;;;;;;2.85;0.85;;;;;;;-140.72;100.00;52711.47;5009712;28;20077;-68
2022/10/01 10:40:43;;;;;;;5.32;1.10;;;;;;;-140.72;100.00;52656.69;5011525;28;20026;-68
2022/10/01 10:43:24;;;;;;;8.20;0.93;;;;;;;-140.72;100.00;52612.03;5011694;28;20034;-67
2022/10/01 10:45:55;;;;;;;5.78;1.00;;;;;;;-140.72;100.00;52626.25;5012301;28;20029;-68
2022/10/01 10:48:22;;;;;;;5.65;1.10;;;;;;;-140.72;100.00;52595.81;4999678;28;20025;-67
2022/10/01 10:50:48;;;;;;;1.55;0.32;;;;;;;-140.72;100.00;52524.78;5012777;28;20125;-68
2022/10/01 10:53:21;;;;;;;1.63;0.57;;;;;;;-140.72;100.00;52528.84;5011019;28;20108;-68
2022/10/01 10:56:01;;;;;;;1.70;0.43;;;;;;;-140.72;100.00;52514.63;5011998;28;20401;-67
2022/10/01 10:58:39;;;;;;;5.07;0.68;;;;;;;-140.72;100.00;52463.91;5000123;28;20026;-68
2022/10/01 11:01:12;;;;;;;11.35;0.85;;;;;;;-140.72;100.00;52419.28;5011155;28;20095;-68
2022/10/01 11:03:45;;;;;;;2.20;0.40;;;;;;;-140.72;0.00;52358.41;5013262;28;20026;-69
2022/10/01 11:06:13;;;;;;;3.53;0.60;;;;;;;-140.72;0.00;52411.16;5010110;28;20113;-68
2022/10/01 11:08:40;;;;;;;1.50;0.65;;;;;;;-140.72;0.00;52378.69;5012000;28;20497;-67
2022/10/01 11:11:31;;;;;;;6.25;0.47;;;;;;;-140.72;0.00;52476.09;5009819;28;20026;-68
2022/10/01 11:14:31;;;;;;;2.90;0.47;;;;;;;-140.72;0.00;52433.47;4998171;28;20026;-68
2022/10/01 11:17:21;;;;;;;2.25;0.65;;;;;;;-140.72;0.00;52403.03;4998626;28;20026;-68
2022/10/01 11:20:21;;;;;;;4.20;0.70;;;;;;;-140.72;0.00;52325.94;5001811;28;20065;-68
2022/10/01 11:22:46;;;;;;;;;;;;;;;-140.72;0.00;52313.75;5007865;28;20087;-68